sensor_id;sensor_type;location;lat;lon;timestamp;P1;durP1;ratioP1;P2;durP2;ratioP2
8592;SDS011;4334;49.982;8.398;2022-09-09T00:01:58;3.93;;;1.70;;
8592;SDS011;4334;49.982;8.398;2022-09-09T00:04:30;4.27;;;1.63;;
8592;SDS011;4334;49.982;8.398;2022-09-09T00:07:03;4.60;;;1.80;;
8592;SDS011;4334;49.982;8.398;2022-09-09T00:09:34;5.47;;;2.13;;
8592;SDS011;4334;49.982;8.398;2022-09-09T00:12:08;4.70;;;1.80;;
8592;SDS011;4334;49.982;8.398;2022-09-09T00:14:41;5.77;;;1.60;;
8592;SDS011;4334;49.982;8.398;2022-09-09T00:17:17;2.53;;;1.60;;
8592;SDS011;4334;49.982;8.398;2022-09-09T00:19:53;4.03;;;1.70;;
8592;SDS011;4334;49.982;8.398;2022-09-09T00:22:25;4.23;;;2.00;;
8592;SDS011;4334;49.982;8.398;2022-09-09T00:24:56;3.73;;;1.70;;
8592;SDS011;4334;49.982;8.398;2022-09-09T00:27:34;2.83;;;1.77;;
8592;SDS011;4334;49.982;8.398;2022-09-09T00:30:13;3.00;;;1.80;;
8592;SDS011;4334;49.982;8.398;2022-09-09T00:32:46;3.73;;;2.10;;
8592;SDS011;4334;49.982;8.398;2022-09-09T00:35:16;3.17;;;1.53;;
8592;SDS011;4334;49.982;8.398;2022-09-09T00:37:48;4.90;;;2.20;;
8592;SDS011;4334;49.982;8.398;2022-09-09T00:40:20;9.03;;;2.23;;
8592;SDS011;4334;49.982;8.398;2022-09-09T00:42:52;4.83;;;1.70;;
8592;SDS011;4334;49.982;8.398;2022-09-09T00:45:34;3.57;;;1.80;;
8592;SDS011;4334;49.982;8.398;2022-09-09T00:48:14;3.37;;;1.53;;
8592;SDS011;4334;49.982;8.398;2022-09-09T00:50:43;2.60;;;1.67;;
8592;SDS011;4334;49.982;8.398;2022-09-09T00:53:18;6.17;;;2.00;;
8592;SDS011;4334;49.982;8.398;2022-09-09T00:55:56;4.27;;;2.00;;
8592;SDS011;4334;49.982;8.398;2022-09-09T00:58:30;3.80;;;2.00;;
8592;SDS011;4334;49.982;8.398;2022-09-09T01:00:57;2.73;;;1.70;;
8592;SDS011;4334;49.982;8.398;2022-09-09T01:03:34;5.10;;;2.10;;
8592;SDS011;4334;49.982;8.398;2022-09-09T01:06:12;8.07;;;2.00;;
8592;SDS011;4334;49.982;8.398;2022-09-09T01:11:45;3.83;;;1.70;;
8592;SDS011;4334;49.982;8.398;2022-09-09T01:14:27;3.67;;;2.00;;
8592;SDS011;4334;49.982;8.398;2022-09-09T01:16:58;5.53;;;1.90;;
8592;SDS011;4334;49.982;8.398;2022-09-09T01:19:35;5.57;;;2.00;;
8592;SDS011;4334;49.982;8.398;2022-09-09T01:22:11;8.03;;;2.10;;
8592;SDS011;4334;49.982;8.398;2022-09-09T01:24:49;4.53;;;2.00;;
8592;SDS011;4334;49.982;8.398;2022-09-09T01:27:37;6.73;;;2.00;;
8592;SDS011;4334;49.982;8.398;2022-09-09T01:30:04;3.10;;;1.80;;
8592;SDS011;4334;49.982;8.398;2022-09-09T01:32:38;6.07;;;1.80;;
8592;SDS011;4334;49.982;8.398;2022-09-09T01:35:09;5.77;;;1.80;;
8592;SDS011;4334;49.982;8.398;2022-09-09T01:37:40;6.17;;;1.73;;
8592;SDS011;4334;49.982;8.398;2022-09-09T01:40:07;4.97;;;2.03;;
8592;SDS011;4334;49.982;8.398;2022-09-09T01:42:34;3.50;;;2.00;;
8592;SDS011;4334;49.982;8.398;2022-09-09T01:45:02;7.90;;;2.17;;
8592;SDS011;4334;49.982;8.398;2022-09-09T01:47:31;2.93;;;1.90;;
8592;SDS011;4334;49.982;8.398;2022-09-09T01:49:57;4.67;;;2.00;;
8592;SDS011;4334;49.982;8.398;2022-09-09T01:52:25;5.30;;;2.30;;
8592;SDS011;4334;49.982;8.398;2022-09-09T01:54:52;4.60;;;1.70;;
8592;SDS011;4334;49.982;8.398;2022-09-09T01:57:20;5.73;;;2.30;;
8592;SDS011;4334;49.982;8.398;2022-09-09T02:02:38;7.47;;;2.23;;
8592;SDS011;4334;49.982;8.398;2022-09-09T02:05:17;3.93;;;1.93;;
8592;SDS011;4334;49.982;8.398;2022-09-09T02:07:55;5.40;;;2.57;;
8592;SDS011;4334;49.982;8.398;2022-09-09T02:10:28;5.20;;;2.17;;
8592;SDS011;4334;49.982;8.398;2022-09-09T02:13:04;7.17;;;2.70;;
8592;SDS011;4334;49.982;8.398;2022-09-09T02:15:38;3.73;;;2.30;;
8592;SDS011;4334;49.982;8.398;2022-09-09T02:18:10;4.87;;;2.40;;
8592;SDS011;4334;49.982;8.398;2022-09-09T02:20:38;6.77;;;2.30;;
8592;SDS011;4334;49.982;8.398;2022-09-09T02:23:05;5.73;;;2.10;;
8592;SDS011;4334;49.982;8.398;2022-09-09T02:25:35;4.77;;;2.20;;
8592;SDS011;4334;49.982;8.398;2022-09-09T02:28:03;4.03;;;2.10;;
8592;SDS011;4334;49.982;8.398;2022-09-09T02:30:32;5.33;;;2.13;;
8592;SDS011;4334;49.982;8.398;2022-09-09T02:33:02;4.00;;;2.17;;
8592;SDS011;4334;49.982;8.398;2022-09-09T02:35:32;3.43;;;2.10;;
8592;SDS011;4334;49.982;8.398;2022-09-09T02:38:02;3.70;;;2.10;;
8592;SDS011;4334;49.982;8.398;2022-09-09T02:40:33;4.07;;;2.13;;
8592;SDS011;4334;49.982;8.398;2022-09-09T02:42:59;3.63;;;2.10;;
8592;SDS011;4334;49.982;8.398;2022-09-09T02:45:29;4.27;;;2.10;;
8592;SDS011;4334;49.982;8.398;2022-09-09T02:48:02;4.93;;;2.27;;
8592;SDS011;4334;49.982;8.398;2022-09-09T02:50:37;4.67;;;2.17;;
8592;SDS011;4334;49.982;8.398;2022-09-09T02:53:07;5.77;;;2.10;;
8592;SDS011;4334;49.982;8.398;2022-09-09T02:55:44;4.47;;;2.30;;
8592;SDS011;4334;49.982;8.398;2022-09-09T02:58:13;5.20;;;2.33;;
8592;SDS011;4334;49.982;8.398;2022-09-09T03:00:43;4.17;;;2.10;;
8592;SDS011;4334;49.982;8.398;2022-09-09T03:03:12;6.27;;;2.40;;
8592;SDS011;4334;49.982;8.398;2022-09-09T03:05:41;5.90;;;2.23;;
8592;SDS011;4334;49.982;8.398;2022-09-09T03:08:20;7.33;;;2.47;;
8592;SDS011;4334;49.982;8.398;2022-09-09T03:10:47;5.47;;;2.30;;
8592;SDS011;4334;49.982;8.398;2022-09-09T03:13:14;5.13;;;2.20;;
8592;SDS011;4334;49.982;8.398;2022-09-09T03:15:44;5.30;;;2.50;;
8592;SDS011;4334;49.982;8.398;2022-09-09T03:18:10;6.93;;;2.47;;
8592;SDS011;4334;49.982;8.398;2022-09-09T03:20:41;7.13;;;2.70;;
8592;SDS011;4334;49.982;8.398;2022-09-09T03:23:08;5.60;;;2.90;;
8592;SDS011;4334;49.982;8.398;2022-09-09T03:25:35;7.57;;;2.77;;
8592;SDS011;4334;49.982;8.398;2022-09-09T03:28:02;4.47;;;2.50;;
8592;SDS011;4334;49.982;8.398;2022-09-09T03:30:28;11.63;;;3.37;;
8592;SDS011;4334;49.982;8.398;2022-09-09T03:32:55;5.83;;;2.90;;
8592;SDS011;4334;49.982;8.398;2022-09-09T03:35:24;8.67;;;3.07;;
8592;SDS011;4334;49.982;8.398;2022-09-09T03:37:50;6.50;;;2.97;;
8592;SDS011;4334;49.982;8.398;2022-09-09T03:40:18;8.20;;;2.90;;
8592;SDS011;4334;49.982;8.398;2022-09-09T03:42:45;3.33;;;2.43;;
8592;SDS011;4334;49.982;8.398;2022-09-09T03:45:13;5.87;;;2.20;;
8592;SDS011;4334;49.982;8.398;2022-09-09T03:47:39;4.97;;;2.40;;
8592;SDS011;4334;49.982;8.398;2022-09-09T03:50:07;5.03;;;2.20;;
8592;SDS011;4334;49.982;8.398;2022-09-09T03:52:37;6.23;;;2.27;;
8592;SDS011;4334;49.982;8.398;2022-09-09T03:55:06;4.13;;;2.20;;
8592;SDS011;4334;49.982;8.398;2022-09-09T03:57:33;8.73;;;2.37;;
8592;SDS011;4334;49.982;8.398;2022-09-09T04:00:01;4.83;;;2.10;;
8592;SDS011;4334;49.982;8.398;2022-09-09T04:02:28;5.53;;;2.23;;
8592;SDS011;4334;49.982;8.398;2022-09-09T04:04:55;7.87;;;2.40;;
8592;SDS011;4334;49.982;8.398;2022-09-09T04:07:21;4.70;;;2.20;;
8592;SDS011;4334;49.982;8.398;2022-09-09T04:09:49;5.70;;;2.40;;
8592;SDS011;4334;49.982;8.398;2022-09-09T04:12:16;5.37;;;2.13;;
8592;SDS011;4334;49.982;8.398;2022-09-09T04:14:43;8.50;;;2.57;;
8592;SDS011;4334;49.982;8.398;2022-09-09T04:17:10;3.97;;;2.20;;
8592;SDS011;4334;49.982;8.398;2022-09-09T04:19:36;4.33;;;2.30;;
8592;SDS011;4334;49.982;8.398;2022-09-09T04:22:03;3.50;;;2.20;;
8592;SDS011;4334;49.982;8.398;2022-09-09T04:24:30;7.47;;;2.27;;
8592;SDS011;4334;49.982;8.398;2022-09-09T04:26:58;4.63;;;2.17;;
8592;SDS011;4334;49.982;8.398;2022-09-09T04:29:24;4.63;;;2.23;;
8592;SDS011;4334;49.982;8.398;2022-09-09T04:31:51;3.00;;;2.10;;
8592;SDS011;4334;49.982;8.398;2022-09-09T04:34:18;4.33;;;2.20;;
8592;SDS011;4334;49.982;8.398;2022-09-09T04:36:45;4.67;;;2.10;;
8592;SDS011;4334;49.982;8.398;2022-09-09T04:39:12;5.23;;;2.20;;
8592;SDS011;4334;49.982;8.398;2022-09-09T04:41:39;4.67;;;2.10;;
8592;SDS011;4334;49.982;8.398;2022-09-09T04:44:07;9.57;;;2.10;;
8592;SDS011;4334;49.982;8.398;2022-09-09T04:46:35;3.40;;;2.00;;
8592;SDS011;4334;49.982;8.398;2022-09-09T04:49:01;6.53;;;2.33;;
8592;SDS011;4334;49.982;8.398;2022-09-09T04:51:29;3.50;;;2.20;;
8592;SDS011;4334;49.982;8.398;2022-09-09T04:53:56;8.20;;;2.53;;
8592;SDS011;4334;49.982;8.398;2022-09-09T04:56:23;5.00;;;2.30;;
8592;SDS011;4334;49.982;8.398;2022-09-09T04:58:51;6.07;;;2.13;;
8592;SDS011;4334;49.982;8.398;2022-09-09T05:01:21;4.93;;;2.37;;
8592;SDS011;4334;49.982;8.398;2022-09-09T05:03:49;6.37;;;2.40;;
8592;SDS011;4334;49.982;8.398;2022-09-09T05:06:17;5.20;;;2.43;;
8592;SDS011;4334;49.982;8.398;2022-09-09T05:08:45;5.40;;;2.90;;
8592;SDS011;4334;49.982;8.398;2022-09-09T05:11:13;6.03;;;2.70;;
8592;SDS011;4334;49.982;8.398;2022-09-09T05:13:45;5.43;;;2.80;;
8592;SDS011;4334;49.982;8.398;2022-09-09T05:16:12;5.90;;;2.90;;
8592;SDS011;4334;49.982;8.398;2022-09-09T05:18:41;8.00;;;3.30;;
8592;SDS011;4334;49.982;8.398;2022-09-09T05:21:08;6.90;;;2.83;;
8592;SDS011;4334;49.982;8.398;2022-09-09T05:23:36;4.37;;;2.80;;
8592;SDS011;4334;49.982;8.398;2022-09-09T05:26:03;4.47;;;2.47;;
8592;SDS011;4334;49.982;8.398;2022-09-09T05:28:31;4.63;;;2.30;;
8592;SDS011;4334;49.982;8.398;2022-09-09T05:31:02;5.60;;;2.10;;
8592;SDS011;4334;49.982;8.398;2022-09-09T05:33:30;7.70;;;2.20;;
8592;SDS011;4334;49.982;8.398;2022-09-09T05:36:00;7.80;;;2.30;;
8592;SDS011;4334;49.982;8.398;2022-09-09T05:38:28;6.00;;;2.00;;
8592;SDS011;4334;49.982;8.398;2022-09-09T05:40:54;2.80;;;2.00;;
8592;SDS011;4334;49.982;8.398;2022-09-09T05:43:22;6.33;;;2.13;;
8592;SDS011;4334;49.982;8.398;2022-09-09T05:45:58;5.17;;;1.97;;
8592;SDS011;4334;49.982;8.398;2022-09-09T05:48:27;7.20;;;2.20;;
8592;SDS011;4334;49.982;8.398;2022-09-09T05:50:54;2.63;;;1.90;;
8592;SDS011;4334;49.982;8.398;2022-09-09T05:53:23;2.60;;;1.87;;
8592;SDS011;4334;49.982;8.398;2022-09-09T05:55:50;7.50;;;2.50;;
8592;SDS011;4334;49.982;8.398;2022-09-09T05:58:17;3.60;;;1.90;;
8592;SDS011;4334;49.982;8.398;2022-09-09T06:00:44;3.30;;;2.00;;
8592;SDS011;4334;49.982;8.398;2022-09-09T06:03:11;2.67;;;1.63;;
8592;SDS011;4334;49.982;8.398;2022-09-09T06:05:38;2.73;;;1.80;;
8592;SDS011;4334;49.982;8.398;2022-09-09T06:08:05;2.70;;;1.70;;
8592;SDS011;4334;49.982;8.398;2022-09-09T06:10:34;4.20;;;1.70;;
8592;SDS011;4334;49.982;8.398;2022-09-09T06:13:01;4.60;;;1.60;;
8592;SDS011;4334;49.982;8.398;2022-09-09T06:15:27;3.20;;;2.10;;
8592;SDS011;4334;49.982;8.398;2022-09-09T06:17:55;5.07;;;2.03;;
8592;SDS011;4334;49.982;8.398;2022-09-09T06:20:22;4.30;;;2.00;;
8592;SDS011;4334;49.982;8.398;2022-09-09T06:22:49;7.40;;;1.70;;
8592;SDS011;4334;49.982;8.398;2022-09-09T06:25:16;7.37;;;1.87;;
8592;SDS011;4334;49.982;8.398;2022-09-09T06:27:49;4.17;;;1.70;;
8592;SDS011;4334;49.982;8.398;2022-09-09T06:30:15;5.30;;;1.73;;
8592;SDS011;4334;49.982;8.398;2022-09-09T06:32:43;3.30;;;1.70;;
8592;SDS011;4334;49.982;8.398;2022-09-09T06:35:09;2.83;;;1.53;;
8592;SDS011;4334;49.982;8.398;2022-09-09T06:37:36;4.93;;;1.70;;
8592;SDS011;4334;49.982;8.398;2022-09-09T06:40:03;6.93;;;1.90;;
8592;SDS011;4334;49.982;8.398;2022-09-09T06:42:31;4.60;;;1.90;;
8592;SDS011;4334;49.982;8.398;2022-09-09T06:45:00;4.63;;;1.43;;
8592;SDS011;4334;49.982;8.398;2022-09-09T06:47:27;4.63;;;1.70;;
8592;SDS011;4334;49.982;8.398;2022-09-09T06:49:55;4.30;;;1.53;;
8592;SDS011;4334;49.982;8.398;2022-09-09T06:52:21;3.77;;;1.60;;
8592;SDS011;4334;49.982;8.398;2022-09-09T06:54:49;4.30;;;1.73;;
8592;SDS011;4334;49.982;8.398;2022-09-09T06:57:16;6.07;;;1.70;;
8592;SDS011;4334;49.982;8.398;2022-09-09T06:59:43;3.07;;;1.47;;
8592;SDS011;4334;49.982;8.398;2022-09-09T07:02:11;5.87;;;1.60;;
8592;SDS011;4334;49.982;8.398;2022-09-09T07:04:38;6.60;;;1.60;;
8592;SDS011;4334;49.982;8.398;2022-09-09T07:07:05;3.63;;;1.60;;
8592;SDS011;4334;49.982;8.398;2022-09-09T07:09:33;4.07;;;1.60;;
8592;SDS011;4334;49.982;8.398;2022-09-09T07:11:59;1.67;;;1.23;;
8592;SDS011;4334;49.982;8.398;2022-09-09T07:14:26;5.17;;;1.60;;
8592;SDS011;4334;49.982;8.398;2022-09-09T07:16:53;3.47;;;1.50;;
8592;SDS011;4334;49.982;8.398;2022-09-09T07:19:21;3.80;;;1.60;;
8592;SDS011;4334;49.982;8.398;2022-09-09T07:21:48;7.40;;;1.57;;
8592;SDS011;4334;49.982;8.398;2022-09-09T07:24:15;3.17;;;1.57;;
8592;SDS011;4334;49.982;8.398;2022-09-09T07:26:41;3.20;;;1.67;;
8592;SDS011;4334;49.982;8.398;2022-09-09T07:29:09;3.33;;;1.43;;
8592;SDS011;4334;49.982;8.398;2022-09-09T07:31:38;3.03;;;1.30;;
8592;SDS011;4334;49.982;8.398;2022-09-09T07:34:06;5.93;;;1.77;;
8592;SDS011;4334;49.982;8.398;2022-09-09T07:36:34;4.23;;;1.53;;
8592;SDS011;4334;49.982;8.398;2022-09-09T07:39:04;4.40;;;1.60;;
8592;SDS011;4334;49.982;8.398;2022-09-09T07:41:33;2.47;;;1.40;;
8592;SDS011;4334;49.982;8.398;2022-09-09T07:44:06;6.03;;;1.80;;
8592;SDS011;4334;49.982;8.398;2022-09-09T07:46:36;4.33;;;1.40;;
8592;SDS011;4334;49.982;8.398;2022-09-09T07:49:04;4.43;;;1.60;;
8592;SDS011;4334;49.982;8.398;2022-09-09T07:51:32;4.67;;;1.60;;
8592;SDS011;4334;49.982;8.398;2022-09-09T07:54:02;2.80;;;1.57;;
8592;SDS011;4334;49.982;8.398;2022-09-09T07:56:30;4.73;;;1.77;;
8592;SDS011;4334;49.982;8.398;2022-09-09T07:58:57;3.75;;;1.70;;
8592;SDS011;4334;49.982;8.398;2022-09-09T08:01:26;3.63;;;1.45;;
8592;SDS011;4334;49.982;8.398;2022-09-09T08:03:56;6.72;;;2.20;;
8592;SDS011;4334;49.982;8.398;2022-09-09T08:06:26;4.97;;;1.77;;
8592;SDS011;4334;49.982;8.398;2022-09-09T08:08:53;3.03;;;1.75;;
8592;SDS011;4334;49.982;8.398;2022-09-09T08:11:22;4.15;;;1.60;;
8592;SDS011;4334;49.982;8.398;2022-09-09T08:13:51;4.18;;;1.75;;
8592;SDS011;4334;49.982;8.398;2022-09-09T08:16:19;6.22;;;1.98;;
8592;SDS011;4334;49.982;8.398;2022-09-09T08:18:48;3.95;;;1.75;;
8592;SDS011;4334;49.982;8.398;2022-09-09T08:21:17;4.32;;;1.58;;
8592;SDS011;4334;49.982;8.398;2022-09-09T08:23:46;5.75;;;1.67;;
8592;SDS011;4334;49.982;8.398;2022-09-09T08:26:14;7.03;;;1.90;;
8592;SDS011;4334;49.982;8.398;2022-09-09T08:28:43;7.18;;;1.92;;
8592;SDS011;4334;49.982;8.398;2022-09-09T08:31:11;3.35;;;1.58;;
8592;SDS011;4334;49.982;8.398;2022-09-09T08:33:38;4.53;;;1.80;;
8592;SDS011;4334;49.982;8.398;2022-09-09T08:36:06;8.43;;;2.78;;
8592;SDS011;4334;49.982;8.398;2022-09-09T08:38:35;5.50;;;1.73;;
8592;SDS011;4334;49.982;8.398;2022-09-09T08:44:14;4.32;;;1.80;;
8592;SDS011;4334;49.982;8.398;2022-09-09T08:46:49;5.32;;;1.88;;
8592;SDS011;4334;49.982;8.398;2022-09-09T08:49:27;4.47;;;1.65;;
8592;SDS011;4334;49.982;8.398;2022-09-09T08:52:08;7.70;;;1.80;;
8592;SDS011;4334;49.982;8.398;2022-09-09T08:54:42;3.28;;;1.50;;
8592;SDS011;4334;49.982;8.398;2022-09-09T08:57:11;6.57;;;1.65;;
8592;SDS011;4334;49.982;8.398;2022-09-09T08:59:45;3.90;;;1.77;;
8592;SDS011;4334;49.982;8.398;2022-09-09T09:02:14;4.00;;;1.67;;
8592;SDS011;4334;49.982;8.398;2022-09-09T09:04:47;4.33;;;1.87;;
8592;SDS011;4334;49.982;8.398;2022-09-09T09:07:28;5.40;;;1.60;;
8592;SDS011;4334;49.982;8.398;2022-09-09T09:10:02;5.83;;;1.70;;
8592;SDS011;4334;49.982;8.398;2022-09-09T09:12:32;7.90;;;2.00;;
8592;SDS011;4334;49.982;8.398;2022-09-09T09:15:05;5.53;;;1.97;;
8592;SDS011;4334;49.982;8.398;2022-09-09T09:17:38;4.77;;;1.70;;
8592;SDS011;4334;49.982;8.398;2022-09-09T09:20:05;5.77;;;1.57;;
8592;SDS011;4334;49.982;8.398;2022-09-09T09:22:34;5.40;;;1.90;;
8592;SDS011;4334;49.982;8.398;2022-09-09T09:25:08;7.10;;;2.07;;
8592;SDS011;4334;49.982;8.398;2022-09-09T09:27:40;8.40;;;1.90;;
8592;SDS011;4334;49.982;8.398;2022-09-09T09:30:14;7.67;;;1.90;;
8592;SDS011;4334;49.982;8.398;2022-09-09T09:32:44;4.27;;;1.90;;
8592;SDS011;4334;49.982;8.398;2022-09-09T09:35:17;5.40;;;1.70;;
8592;SDS011;4334;49.982;8.398;2022-09-09T09:37:44;5.03;;;1.90;;
8592;SDS011;4334;49.982;8.398;2022-09-09T09:40:12;6.60;;;1.90;;
8592;SDS011;4334;49.982;8.398;2022-09-09T09:42:47;5.23;;;2.00;;
8592;SDS011;4334;49.982;8.398;2022-09-09T09:45:20;5.97;;;1.60;;
8592;SDS011;4334;49.982;8.398;2022-09-09T09:47:57;3.88;;;1.88;;
8592;SDS011;4334;49.982;8.398;2022-09-09T09:50:24;4.07;;;1.63;;
8592;SDS011;4334;49.982;8.398;2022-09-09T09:52:55;9.60;;;1.50;;
8592;SDS011;4334;49.982;8.398;2022-09-09T09:55:23;5.57;;;1.90;;
8592;SDS011;4334;49.982;8.398;2022-09-09T09:57:51;5.15;;;1.50;;
8592;SDS011;4334;49.982;8.398;2022-09-09T10:00:21;4.40;;;1.55;;
8592;SDS011;4334;49.982;8.398;2022-09-09T10:02:49;3.40;;;1.50;;
8592;SDS011;4334;49.982;8.398;2022-09-09T10:05:18;3.45;;;1.30;;
8592;SDS011;4334;49.982;8.398;2022-09-09T10:07:46;4.82;;;1.98;;
8592;SDS011;4334;49.982;8.398;2022-09-09T10:10:26;5.13;;;1.85;;
8592;SDS011;4334;49.982;8.398;2022-09-09T10:13:08;4.45;;;1.90;;
8592;SDS011;4334;49.982;8.398;2022-09-09T10:15:44;5.47;;;1.60;;
8592;SDS011;4334;49.982;8.398;2022-09-09T10:18:22;2.25;;;1.40;;
8592;SDS011;4334;49.982;8.398;2022-09-09T10:21:02;4.38;;;1.85;;
8592;SDS011;4334;49.982;8.398;2022-09-09T10:23:42;10.10;;;2.50;;
8592;SDS011;4334;49.982;8.398;2022-09-09T10:26:27;7.75;;;2.20;;
8592;SDS011;4334;49.982;8.398;2022-09-09T10:29:05;5.53;;;1.70;;
8592;SDS011;4334;49.982;8.398;2022-09-09T10:31:47;4.03;;;1.73;;
8592;SDS011;4334;49.982;8.398;2022-09-09T10:34:29;3.80;;;1.40;;
8592;SDS011;4334;49.982;8.398;2022-09-09T10:37:13;4.45;;;1.60;;
8592;SDS011;4334;49.982;8.398;2022-09-09T10:39:47;7.13;;;1.90;;
8592;SDS011;4334;49.982;8.398;2022-09-09T10:42:17;4.20;;;1.58;;
8592;SDS011;4334;49.982;8.398;2022-09-09T10:44:53;5.25;;;1.50;;
8592;SDS011;4334;49.982;8.398;2022-09-09T10:47:41;2.75;;;1.35;;
8592;SDS011;4334;49.982;8.398;2022-09-09T10:50:21;3.50;;;1.63;;
8592;SDS011;4334;49.982;8.398;2022-09-09T10:52:58;5.70;;;1.38;;
8592;SDS011;4334;49.982;8.398;2022-09-09T10:55:35;2.08;;;1.10;;
8592;SDS011;4334;49.982;8.398;2022-09-09T10:58:05;2.22;;;1.20;;
8592;SDS011;4334;49.982;8.398;2022-09-09T11:00:37;4.70;;;1.67;;
8592;SDS011;4334;49.982;8.398;2022-09-09T11:03:09;7.82;;;2.13;;
8592;SDS011;4334;49.982;8.398;2022-09-09T11:05:45;5.03;;;1.55;;
8592;SDS011;4334;49.982;8.398;2022-09-09T11:08:16;1.70;;;1.38;;
8592;SDS011;4334;49.982;8.398;2022-09-09T11:10:46;5.72;;;1.88;;
8592;SDS011;4334;49.982;8.398;2022-09-09T11:13:21;3.47;;;1.45;;
8592;SDS011;4334;49.982;8.398;2022-09-09T11:15:52;5.25;;;1.70;;
8592;SDS011;4334;49.982;8.398;2022-09-09T11:18:21;4.65;;;1.55;;
8592;SDS011;4334;49.982;8.398;2022-09-09T11:20:51;3.17;;;1.40;;
8592;SDS011;4334;49.982;8.398;2022-09-09T11:23:25;3.90;;;1.50;;
8592;SDS011;4334;49.982;8.398;2022-09-09T11:25:59;3.45;;;1.40;;
8592;SDS011;4334;49.982;8.398;2022-09-09T11:28:36;3.08;;;1.40;;
8592;SDS011;4334;49.982;8.398;2022-09-09T11:31:17;4.20;;;1.48;;
8592;SDS011;4334;49.982;8.398;2022-09-09T11:34:06;3.83;;;1.33;;
8592;SDS011;4334;49.982;8.398;2022-09-09T11:36:49;2.92;;;1.45;;
8592;SDS011;4334;49.982;8.398;2022-09-09T11:39:37;2.53;;;1.17;;
8592;SDS011;4334;49.982;8.398;2022-09-09T11:42:18;3.90;;;1.50;;
8592;SDS011;4334;49.982;8.398;2022-09-09T11:44:45;3.35;;;1.70;;
8592;SDS011;4334;49.982;8.398;2022-09-09T11:47:16;4.47;;;1.42;;
8592;SDS011;4334;49.982;8.398;2022-09-09T11:49:50;6.80;;;1.70;;
8592;SDS011;4334;49.982;8.398;2022-09-09T11:52:21;2.80;;;1.33;;
8592;SDS011;4334;49.982;8.398;2022-09-09T11:54:50;4.63;;;1.85;;
8592;SDS011;4334;49.982;8.398;2022-09-09T11:57:23;3.03;;;1.50;;
8592;SDS011;4334;49.982;8.398;2022-09-09T11:59:53;4.05;;;1.40;;
8592;SDS011;4334;49.982;8.398;2022-09-09T12:02:22;7.05;;;1.67;;
8592;SDS011;4334;49.982;8.398;2022-09-09T12:04:56;3.50;;;1.60;;
8592;SDS011;4334;49.982;8.398;2022-09-09T12:07:36;4.93;;;1.38;;
8592;SDS011;4334;49.982;8.398;2022-09-09T12:10:17;15.40;;;1.65;;
8592;SDS011;4334;49.982;8.398;2022-09-09T12:12:48;6.32;;;1.67;;
8592;SDS011;4334;49.982;8.398;2022-09-09T12:15:22;8.98;;;1.90;;
8592;SDS011;4334;49.982;8.398;2022-09-09T12:17:54;8.93;;;1.70;;
8592;SDS011;4334;49.982;8.398;2022-09-09T12:20:26;6.57;;;1.77;;
8592;SDS011;4334;49.982;8.398;2022-09-09T12:23:02;6.30;;;1.27;;
8592;SDS011;4334;49.982;8.398;2022-09-09T12:28:31;5.20;;;1.50;;
8592;SDS011;4334;49.982;8.398;2022-09-09T12:31:08;5.40;;;1.50;;
8592;SDS011;4334;49.982;8.398;2022-09-09T12:33:42;5.73;;;1.70;;
8592;SDS011;4334;49.982;8.398;2022-09-09T12:36:14;5.00;;;1.70;;
8592;SDS011;4334;49.982;8.398;2022-09-09T12:38:45;4.83;;;1.60;;
8592;SDS011;4334;49.982;8.398;2022-09-09T12:41:21;7.90;;;1.20;;
8592;SDS011;4334;49.982;8.398;2022-09-09T12:43:49;2.97;;;1.27;;
8592;SDS011;4334;49.982;8.398;2022-09-09T12:46:20;4.63;;;1.40;;
8592;SDS011;4334;49.982;8.398;2022-09-09T12:48:48;3.30;;;1.40;;
8592;SDS011;4334;49.982;8.398;2022-09-09T12:51:18;5.40;;;1.70;;
8592;SDS011;4334;49.982;8.398;2022-09-09T12:53:46;2.30;;;1.00;;
8592;SDS011;4334;49.982;8.398;2022-09-09T12:56:18;2.57;;;0.90;;
8592;SDS011;4334;49.982;8.398;2022-09-09T12:58:46;3.67;;;1.10;;
8592;SDS011;4334;49.982;8.398;2022-09-09T13:01:18;1.23;;;0.80;;
8592;SDS011;4334;49.982;8.398;2022-09-09T13:03:48;4.00;;;0.90;;
8592;SDS011;4334;49.982;8.398;2022-09-09T13:06:19;0.70;;;0.67;;
8592;SDS011;4334;49.982;8.398;2022-09-09T13:08:48;1.57;;;1.07;;
8592;SDS011;4334;49.982;8.398;2022-09-09T13:11:16;3.20;;;1.13;;
8592;SDS011;4334;49.982;8.398;2022-09-09T13:13:50;0.73;;;0.70;;
8592;SDS011;4334;49.982;8.398;2022-09-09T13:16:19;1.40;;;0.60;;
8592;SDS011;4334;49.982;8.398;2022-09-09T13:18:49;1.23;;;0.93;;
8592;SDS011;4334;49.982;8.398;2022-09-09T13:21:16;1.38;;;0.70;;
8592;SDS011;4334;49.982;8.398;2022-09-09T13:23:49;1.40;;;0.57;;
8592;SDS011;4334;49.982;8.398;2022-09-09T13:26:21;0.90;;;0.63;;
8592;SDS011;4334;49.982;8.398;2022-09-09T13:28:49;1.25;;;0.70;;
8592;SDS011;4334;49.982;8.398;2022-09-09T13:31:22;1.35;;;0.60;;
8592;SDS011;4334;49.982;8.398;2022-09-09T13:33:53;1.38;;;0.68;;
8592;SDS011;4334;49.982;8.398;2022-09-09T13:36:27;1.08;;;0.70;;
8592;SDS011;4334;49.982;8.398;2022-09-09T13:38:58;1.63;;;0.70;;
8592;SDS011;4334;49.982;8.398;2022-09-09T13:41:28;1.25;;;1.00;;
8592;SDS011;4334;49.982;8.398;2022-09-09T13:43:58;1.02;;;0.60;;
8592;SDS011;4334;49.982;8.398;2022-09-09T13:46:27;1.95;;;0.98;;
8592;SDS011;4334;49.982;8.398;2022-09-09T13:48:55;0.93;;;0.70;;
8592;SDS011;4334;49.982;8.398;2022-09-09T13:51:27;2.28;;;0.90;;
8592;SDS011;4334;49.982;8.398;2022-09-09T13:54:04;2.10;;;0.82;;
8592;SDS011;4334;49.982;8.398;2022-09-09T13:56:32;1.10;;;0.80;;
8592;SDS011;4334;49.982;8.398;2022-09-09T13:58:59;2.42;;;1.00;;
8592;SDS011;4334;49.982;8.398;2022-09-09T14:01:26;2.25;;;0.82;;
8592;SDS011;4334;49.982;8.398;2022-09-09T14:03:53;2.30;;;1.00;;
8592;SDS011;4334;49.982;8.398;2022-09-09T14:06:20;2.05;;;0.80;;
8592;SDS011;4334;49.982;8.398;2022-09-09T14:08:48;2.92;;;1.10;;
8592;SDS011;4334;49.982;8.398;2022-09-09T14:11:16;1.67;;;0.90;;
8592;SDS011;4334;49.982;8.398;2022-09-09T14:13:44;3.78;;;1.00;;
8592;SDS011;4334;49.982;8.398;2022-09-09T14:16:11;4.38;;;1.10;;
8592;SDS011;4334;49.982;8.398;2022-09-09T14:18:38;4.28;;;1.10;;
8592;SDS011;4334;49.982;8.398;2022-09-09T14:21:05;1.65;;;0.85;;
8592;SDS011;4334;49.982;8.398;2022-09-09T14:23:34;2.58;;;1.15;;
8592;SDS011;4334;49.982;8.398;2022-09-09T14:26:03;2.63;;;1.30;;
8592;SDS011;4334;49.982;8.398;2022-09-09T14:28:31;1.52;;;0.90;;
8592;SDS011;4334;49.982;8.398;2022-09-09T14:30:59;5.35;;;0.88;;
8592;SDS011;4334;49.982;8.398;2022-09-09T14:33:25;3.10;;;1.15;;
8592;SDS011;4334;49.982;8.398;2022-09-09T14:35:55;2.47;;;1.27;;
8592;SDS011;4334;49.982;8.398;2022-09-09T14:38:22;1.58;;;0.98;;
8592;SDS011;4334;49.982;8.398;2022-09-09T14:40:49;1.35;;;0.90;;
8592;SDS011;4334;49.982;8.398;2022-09-09T14:43:16;3.35;;;0.90;;
8592;SDS011;4334;49.982;8.398;2022-09-09T14:45:44;2.17;;;1.17;;
8592;SDS011;4334;49.982;8.398;2022-09-09T14:48:10;4.27;;;1.10;;
8592;SDS011;4334;49.982;8.398;2022-09-09T14:50:38;3.97;;;0.90;;
8592;SDS011;4334;49.982;8.398;2022-09-09T14:53:05;3.07;;;1.23;;
8592;SDS011;4334;49.982;8.398;2022-09-09T14:55:33;2.10;;;1.03;;
8592;SDS011;4334;49.982;8.398;2022-09-09T14:58:00;2.40;;;1.40;;
8592;SDS011;4334;49.982;8.398;2022-09-09T15:00:27;2.50;;;1.30;;
8592;SDS011;4334;49.982;8.398;2022-09-09T15:02:55;2.10;;;1.03;;
8592;SDS011;4334;49.982;8.398;2022-09-09T15:05:22;3.13;;;1.17;;
8592;SDS011;4334;49.982;8.398;2022-09-09T15:07:50;3.03;;;1.20;;
8592;SDS011;4334;49.982;8.398;2022-09-09T15:10:17;2.20;;;1.20;;
8592;SDS011;4334;49.982;8.398;2022-09-09T15:12:43;4.10;;;1.27;;
8592;SDS011;4334;49.982;8.398;2022-09-09T15:15:10;2.50;;;1.13;;
8592;SDS011;4334;49.982;8.398;2022-09-09T15:17:37;2.13;;;1.20;;
8592;SDS011;4334;49.982;8.398;2022-09-09T15:20:06;4.40;;;1.30;;
8592;SDS011;4334;49.982;8.398;2022-09-09T15:22:34;2.10;;;1.10;;
8592;SDS011;4334;49.982;8.398;2022-09-09T15:25:03;2.93;;;1.27;;
8592;SDS011;4334;49.982;8.398;2022-09-09T15:27:30;6.40;;;1.40;;
8592;SDS011;4334;49.982;8.398;2022-09-09T15:29:57;3.35;;;1.20;;
8592;SDS011;4334;49.982;8.398;2022-09-09T15:32:25;1.75;;;1.05;;
8592;SDS011;4334;49.982;8.398;2022-09-09T15:34:52;2.78;;;1.27;;
8592;SDS011;4334;49.982;8.398;2022-09-09T15:37:20;4.10;;;1.25;;
8592;SDS011;4334;49.982;8.398;2022-09-09T15:39:47;2.80;;;1.10;;
8592;SDS011;4334;49.982;8.398;2022-09-09T15:42:13;2.00;;;1.00;;
8592;SDS011;4334;49.982;8.398;2022-09-09T15:44:41;2.85;;;1.23;;
8592;SDS011;4334;49.982;8.398;2022-09-09T15:47:09;1.35;;;1.00;;